Oscoda, MI

12:55 PM EDT on August 29, 2015 (GMT -0400)
Oscoda-Wurtsmith | | Change Station
CLOSE
Current Station
Airport
Location: Oscoda,
Elevation: 633 ft
Nearby Weather Stations

Elev 633 ft 44.45 °N, 83.39 °W | Updated 22 minutes ago

Overcast
Overcast
66 °F
Feels Like 66 °F
N
6
Wind Variable Wind from ESE

Today
High -- | Low -- °F
--% Chance of Precip.
Yesterday
High -- | Low -- °F
Precip. -- in
6:52 AM 8:16 PM
Full, 100% visible
Pressure 30.13 in
Visibility 10.0 miles
Clouds Scattered Clouds 4100 ft
Scattered Clouds 6000 ft
Overcast 10000 ft
Dew Point 58 °F
Humidity 77%
Rainfall 0.00 in
Snow Depth Not available.
UV 2 out of 12
Pollen 8.70 out of 12
Air Quality Not available.
Flu Activity Not available.
METAR KOSC 291633Z AUTO 12005KT 10SM SCT041 SCT060 OVC100 19/15 A3013 RMK AO2 T01860146
Pressure 30.13 in
Visibility 10.0 miles
Clouds Scattered Clouds 4100 ft
Scattered Clouds 6000 ft
Overcast 10000 ft
Dew Point 58 °F
Humidity 77%
Rainfall 0.00 in
Snow Depth Not available.
UV 2 out of 12
Pollen 8.70 out of 12
Air Quality Not available.
Flu Activity Not available.
METAR KOSC 291633Z AUTO 12005KT 10SM SCT041 SCT060 OVC100 19/15 A3013 RMK AO2 T01860146
Nowcast | as of 12:00 PM EDT on August 29, 2015

At 1 PM...cloudy. Scattered showers. Temperature 67. Southeast winds 7 mph. At 3 PM...mostly cloudy. Scattered showers. Temperature 69. South winds 9 mph. At 5 PM...mostly cloudy. Scattered showers. Temperature 69. South winds 9 mph. At 7 PM...mostly cloudy. Scattered showers. Temperature 68. South winds 6 mph.

×

10-Day Weather Forecast

×

Almanac

Astronomy

Aug. 29, 2015 Rise Set
Actual Time
Civil Twilight
Nautical Twilight
Astronomical Twilight
Moon
Length of Visible Light
Length of Day
Tomorrow will be .
, % of the Moon is Illuminated

Today's Extremes

State Highs State Lows

Community

WunderPhotos

Upload Photos

1,850,722 photos uploaded!

WunderBlogs® & News

Nearby

Air Quality

  Air Quality AQ Index Pollutant
Not available.

Snow Depth

Station Depth Elevation

Earthquake Activity

City Distance Mag. Time & Date
Minimum magnitude displayed is 2.5.

Coastal Water Temperatures

Place Temperature

Stations

Nearby Weather Stations

Station Location Temp. Windchill Dew Point Humidity Wind Precip. Elev Updated Type